الصفحة الرئيسية
METAR-TAF:

METAR-TAF

مطار :

Upington, جنوب أفريقيا

دائرة عرض: 28-24S, خط طول: 021-16E, ارتفاع: 839 متر

مراقبة الطقس الحالي

تاريخ ووقت الإصدار 55 دقيقة قبل الساعة 02:00UTC
ريح 7 عقدة من الشمال/الشمال الشرقي
درجة الحرارة 20°درجة مئوية
الرطوبة 83%
ضغط 1016 hPa
الرؤية 10 كم أو أكثر
غيوم متفرقة على ارتفاع 3000 قدم

METAR: FAUP 060200Z 03007KT 9999 SCT030 20/17 Q1016 NOSIG

زمن: 04:55 (02:55 UTC)

توقعات

تاريخ ووقت الإصدار 4ساعات و 55 دقيقة قبل الساعة 22:00UTC
التوقعات صالحة من06 الساعة 00 UTC إلى 06 الساعة 24 UTC
ريح 10 عقدة من الشمال/الشمال الغربي
الرؤية 10 كم أو أكثر
الغيوم لا تقل 1500 م ولا وجود لمزنة ركامية السحاب الأسود

TAF: FAUP 052200Z 0600/0624 34010KT CAVOK TX31/0613Z TN21/0604Z

أرصاد الطقس والتوقعات من أكثر من 4000 مطار (تقارير الطقس للمطار METAR والتنبؤ بالطقس بالمطارTAF).

المحطات المتاحة هي النقط الصفراء والحمراء على الخريطة.

حرك المؤشر فوق النقطة لمعرفة اسم المحطة.

ثم انقر لمعرفة أرصاد وتوقعات الطقس.

لتغيير الخارطة: اضغط على الأزرار الخضراء مع رمز الصليب الأسود للتكبير. على الزر الأخضر مع شرطة للتصغير، أو على الأسهم الخضراء للخرائط المجاورة.


METAR-TAF: